sensor_id;sensor_type;location;lat;lon;timestamp;P1;durP1;ratioP1;P2;durP2;ratioP2
9140;SDS011;46330;50.822;7.126;2023-04-25T00:00:24;11.38;;;3.95;;
9140;SDS011;46330;50.822;7.126;2023-04-25T00:02:52;8.10;;;4.10;;
9140;SDS011;46330;50.822;7.126;2023-04-25T00:05:22;10.68;;;4.00;;
9140;SDS011;46330;50.822;7.126;2023-04-25T00:07:52;8.35;;;3.97;;
9140;SDS011;46330;50.822;7.126;2023-04-25T00:10:20;11.02;;;3.75;;
9140;SDS011;46330;50.822;7.126;2023-04-25T00:12:48;10.18;;;4.13;;
9140;SDS011;46330;50.822;7.126;2023-04-25T00:15:16;10.85;;;3.65;;
9140;SDS011;46330;50.822;7.126;2023-04-25T00:17:44;8.73;;;3.70;;
9140;SDS011;46330;50.822;7.126;2023-04-25T00:20:12;10.85;;;3.75;;
9140;SDS011;46330;50.822;7.126;2023-04-25T00:22:41;9.05;;;3.85;;
9140;SDS011;46330;50.822;7.126;2023-04-25T00:25:10;12.82;;;4.40;;
9140;SDS011;46330;50.822;7.126;2023-04-25T00:27:38;11.23;;;4.38;;
9140;SDS011;46330;50.822;7.126;2023-04-25T00:30:08;10.60;;;4.40;;
9140;SDS011;46330;50.822;7.126;2023-04-25T00:32:36;12.35;;;4.25;;
9140;SDS011;46330;50.822;7.126;2023-04-25T00:35:04;12.90;;;4.72;;
9140;SDS011;46330;50.822;7.126;2023-04-25T00:37:33;9.18;;;4.03;;
9140;SDS011;46330;50.822;7.126;2023-04-25T00:40:01;13.70;;;4.75;;
9140;SDS011;46330;50.822;7.126;2023-04-25T00:42:33;16.52;;;4.32;;
9140;SDS011;46330;50.822;7.126;2023-04-25T00:45:04;13.50;;;4.60;;
9140;SDS011;46330;50.822;7.126;2023-04-25T00:47:34;11.55;;;4.38;;
9140;SDS011;46330;50.822;7.126;2023-04-25T00:50:03;9.10;;;4.07;;
9140;SDS011;46330;50.822;7.126;2023-04-25T00:52:32;14.23;;;4.47;;
9140;SDS011;46330;50.822;7.126;2023-04-25T00:55:00;11.35;;;4.57;;
9140;SDS011;46330;50.822;7.126;2023-04-25T00:57:28;10.55;;;4.30;;
9140;SDS011;46330;50.822;7.126;2023-04-25T00:59:58;11.93;;;4.50;;
9140;SDS011;46330;50.822;7.126;2023-04-25T01:02:27;16.95;;;4.72;;
9140;SDS011;46330;50.822;7.126;2023-04-25T01:04:56;12.77;;;5.15;;
9140;SDS011;46330;50.822;7.126;2023-04-25T01:07:24;13.23;;;4.72;;
9140;SDS011;46330;50.822;7.126;2023-04-25T01:09:52;9.65;;;4.53;;
9140;SDS011;46330;50.822;7.126;2023-04-25T01:12:20;9.80;;;4.53;;
9140;SDS011;46330;50.822;7.126;2023-04-25T01:14:48;11.98;;;4.63;;
9140;SDS011;46330;50.822;7.126;2023-04-25T01:17:17;16.60;;;4.78;;
9140;SDS011;46330;50.822;7.126;2023-04-25T01:19:46;11.43;;;4.93;;
9140;SDS011;46330;50.822;7.126;2023-04-25T01:22:16;12.82;;;4.95;;
9140;SDS011;46330;50.822;7.126;2023-04-25T01:24:45;12.52;;;4.90;;
9140;SDS011;46330;50.822;7.126;2023-04-25T01:27:13;15.57;;;5.53;;
9140;SDS011;46330;50.822;7.126;2023-04-25T01:29:41;11.95;;;4.45;;
9140;SDS011;46330;50.822;7.126;2023-04-25T01:32:10;10.00;;;4.90;;
9140;SDS011;46330;50.822;7.126;2023-04-25T01:34:38;13.38;;;4.80;;
9140;SDS011;46330;50.822;7.126;2023-04-25T01:37:06;11.30;;;4.70;;
9140;SDS011;46330;50.822;7.126;2023-04-25T01:39:35;14.80;;;4.70;;
9140;SDS011;46330;50.822;7.126;2023-04-25T01:42:04;14.13;;;5.47;;
9140;SDS011;46330;50.822;7.126;2023-04-25T01:44:32;11.93;;;4.32;;
9140;SDS011;46330;50.822;7.126;2023-04-25T01:47:00;12.50;;;4.50;;
9140;SDS011;46330;50.822;7.126;2023-04-25T01:49:30;16.33;;;4.78;;
9140;SDS011;46330;50.822;7.126;2023-04-25T01:51:58;16.10;;;6.05;;
9140;SDS011;46330;50.822;7.126;2023-04-25T01:54:26;10.18;;;4.50;;
9140;SDS011;46330;50.822;7.126;2023-04-25T01:56:56;18.77;;;5.35;;
9140;SDS011;46330;50.822;7.126;2023-04-25T01:59:24;14.52;;;4.57;;
9140;SDS011;46330;50.822;7.126;2023-04-25T02:02:02;11.75;;;4.85;;
9140;SDS011;46330;50.822;7.126;2023-04-25T02:04:32;13.68;;;5.03;;
9140;SDS011;46330;50.822;7.126;2023-04-25T02:07:01;16.50;;;4.80;;
9140;SDS011;46330;50.822;7.126;2023-04-25T02:09:42;11.15;;;5.00;;
9140;SDS011;46330;50.822;7.126;2023-04-25T02:12:12;18.70;;;4.88;;
9140;SDS011;46330;50.822;7.126;2023-04-25T02:14:56;13.48;;;4.60;;
9140;SDS011;46330;50.822;7.126;2023-04-25T02:17:44;12.23;;;4.80;;
9140;SDS011;46330;50.822;7.126;2023-04-25T02:20:12;12.35;;;4.75;;
9140;SDS011;46330;50.822;7.126;2023-04-25T02:22:40;12.07;;;4.72;;
9140;SDS011;46330;50.822;7.126;2023-04-25T02:25:08;19.15;;;5.68;;
9140;SDS011;46330;50.822;7.126;2023-04-25T02:27:39;14.88;;;5.03;;
9140;SDS011;46330;50.822;7.126;2023-04-25T02:30:07;13.52;;;4.75;;
9140;SDS011;46330;50.822;7.126;2023-04-25T02:32:36;16.08;;;5.00;;
9140;SDS011;46330;50.822;7.126;2023-04-25T02:35:04;12.02;;;4.47;;
9140;SDS011;46330;50.822;7.126;2023-04-25T02:37:33;13.43;;;4.82;;
9140;SDS011;46330;50.822;7.126;2023-04-25T02:40:02;11.00;;;4.15;;
9140;SDS011;46330;50.822;7.126;2023-04-25T02:42:31;14.68;;;4.93;;
9140;SDS011;46330;50.822;7.126;2023-04-25T02:45:00;17.27;;;4.85;;
9140;SDS011;46330;50.822;7.126;2023-04-25T02:47:28;12.18;;;4.57;;
9140;SDS011;46330;50.822;7.126;2023-04-25T02:49:56;19.67;;;5.03;;
9140;SDS011;46330;50.822;7.126;2023-04-25T02:52:24;16.02;;;5.00;;
9140;SDS011;46330;50.822;7.126;2023-04-25T02:55:00;16.55;;;4.97;;
9140;SDS011;46330;50.822;7.126;2023-04-25T02:57:30;14.88;;;4.90;;
9140;SDS011;46330;50.822;7.126;2023-04-25T02:59:59;15.45;;;5.43;;
9140;SDS011;46330;50.822;7.126;2023-04-25T03:02:27;14.40;;;4.50;;
9140;SDS011;46330;50.822;7.126;2023-04-25T03:04:55;15.93;;;5.38;;
9140;SDS011;46330;50.822;7.126;2023-04-25T03:07:23;15.70;;;5.47;;
9140;SDS011;46330;50.822;7.126;2023-04-25T03:09:51;20.90;;;6.25;;
9140;SDS011;46330;50.822;7.126;2023-04-25T03:12:19;21.15;;;6.43;;
9140;SDS011;46330;50.822;7.126;2023-04-25T03:14:47;16.65;;;6.00;;
9140;SDS011;46330;50.822;7.126;2023-04-25T03:17:16;13.48;;;5.68;;
9140;SDS011;46330;50.822;7.126;2023-04-25T03:19:44;15.93;;;5.53;;
9140;SDS011;46330;50.822;7.126;2023-04-25T03:22:12;16.05;;;5.43;;
9140;SDS011;46330;50.822;7.126;2023-04-25T03:24:40;15.27;;;5.20;;
9140;SDS011;46330;50.822;7.126;2023-04-25T03:27:08;17.63;;;6.63;;
9140;SDS011;46330;50.822;7.126;2023-04-25T03:29:36;14.50;;;6.35;;
9140;SDS011;46330;50.822;7.126;2023-04-25T03:32:05;12.40;;;5.20;;
9140;SDS011;46330;50.822;7.126;2023-04-25T03:34:34;14.30;;;5.65;;
9140;SDS011;46330;50.822;7.126;2023-04-25T03:37:02;12.45;;;5.22;;
9140;SDS011;46330;50.822;7.126;2023-04-25T03:39:34;17.10;;;5.10;;
9140;SDS011;46330;50.822;7.126;2023-04-25T03:42:02;15.38;;;4.80;;
9140;SDS011;46330;50.822;7.126;2023-04-25T03:44:30;16.00;;;5.05;;
9140;SDS011;46330;50.822;7.126;2023-04-25T03:46:59;18.55;;;7.15;;
9140;SDS011;46330;50.822;7.126;2023-04-25T03:49:28;20.30;;;8.43;;
9140;SDS011;46330;50.822;7.126;2023-04-25T03:52:00;14.60;;;5.25;;
9140;SDS011;46330;50.822;7.126;2023-04-25T03:54:34;12.68;;;4.53;;
9140;SDS011;46330;50.822;7.126;2023-04-25T03:57:12;10.95;;;4.97;;
9140;SDS011;46330;50.822;7.126;2023-04-25T03:59:41;10.77;;;4.60;;
9140;SDS011;46330;50.822;7.126;2023-04-25T04:02:11;14.10;;;5.00;;
9140;SDS011;46330;50.822;7.126;2023-04-25T04:04:40;12.10;;;4.30;;
9140;SDS011;46330;50.822;7.126;2023-04-25T04:07:12;10.88;;;4.25;;
9140;SDS011;46330;50.822;7.126;2023-04-25T04:09:43;11.70;;;4.10;;
9140;SDS011;46330;50.822;7.126;2023-04-25T04:12:21;11.98;;;4.53;;
9140;SDS011;46330;50.822;7.126;2023-04-25T04:14:49;9.45;;;4.55;;
9140;SDS011;46330;50.822;7.126;2023-04-25T04:17:17;10.57;;;4.70;;
9140;SDS011;46330;50.822;7.126;2023-04-25T04:19:45;11.10;;;4.30;;
9140;SDS011;46330;50.822;7.126;2023-04-25T04:22:19;15.20;;;5.18;;
9140;SDS011;46330;50.822;7.126;2023-04-25T04:24:47;15.75;;;5.55;;
9140;SDS011;46330;50.822;7.126;2023-04-25T04:27:21;12.20;;;4.95;;
9140;SDS011;46330;50.822;7.126;2023-04-25T04:30:12;16.88;;;4.57;;
9140;SDS011;46330;50.822;7.126;2023-04-25T04:32:55;9.00;;;4.15;;
9140;SDS011;46330;50.822;7.126;2023-04-25T04:35:24;10.23;;;4.20;;
9140;SDS011;46330;50.822;7.126;2023-04-25T04:37:53;11.93;;;4.78;;
9140;SDS011;46330;50.822;7.126;2023-04-25T04:40:24;9.82;;;4.18;;
9140;SDS011;46330;50.822;7.126;2023-04-25T04:43:16;11.55;;;4.75;;
9140;SDS011;46330;50.822;7.126;2023-04-25T04:46:20;13.23;;;5.13;;
9140;SDS011;46330;50.822;7.126;2023-04-25T04:49:11;11.02;;;5.20;;
9140;SDS011;46330;50.822;7.126;2023-04-25T04:51:58;14.65;;;4.78;;
9140;SDS011;46330;50.822;7.126;2023-04-25T04:54:51;13.13;;;4.45;;
9140;SDS011;46330;50.822;7.126;2023-04-25T04:57:54;14.18;;;4.63;;
9140;SDS011;46330;50.822;7.126;2023-04-25T05:00:42;15.82;;;4.90;;
9140;SDS011;46330;50.822;7.126;2023-04-25T05:03:27;11.68;;;4.25;;
9140;SDS011;46330;50.822;7.126;2023-04-25T05:06:01;11.20;;;4.25;;
9140;SDS011;46330;50.822;7.126;2023-04-25T05:08:48;13.48;;;4.20;;
9140;SDS011;46330;50.822;7.126;2023-04-25T05:11:35;10.27;;;4.13;;
9140;SDS011;46330;50.822;7.126;2023-04-25T05:14:23;12.32;;;4.80;;
9140;SDS011;46330;50.822;7.126;2023-04-25T05:17:10;15.68;;;4.65;;
9140;SDS011;46330;50.822;7.126;2023-04-25T05:19:56;12.50;;;4.45;;
9140;SDS011;46330;50.822;7.126;2023-04-25T05:22:59;14.52;;;4.38;;
9140;SDS011;46330;50.822;7.126;2023-04-25T05:25:46;13.23;;;4.50;;
9140;SDS011;46330;50.822;7.126;2023-04-25T05:28:22;10.88;;;4.72;;
9140;SDS011;46330;50.822;7.126;2023-04-25T05:30:58;16.58;;;5.30;;
9140;SDS011;46330;50.822;7.126;2023-04-25T05:33:29;12.40;;;4.47;;
9140;SDS011;46330;50.822;7.126;2023-04-25T05:35:58;15.90;;;5.00;;
9140;SDS011;46330;50.822;7.126;2023-04-25T05:38:26;12.98;;;4.72;;
9140;SDS011;46330;50.822;7.126;2023-04-25T05:41:20;18.00;;;4.80;;
9140;SDS011;46330;50.822;7.126;2023-04-25T05:44:08;10.30;;;4.15;;
9140;SDS011;46330;50.822;7.126;2023-04-25T05:46:42;14.73;;;4.65;;
9140;SDS011;46330;50.822;7.126;2023-04-25T05:49:16;13.38;;;4.78;;
9140;SDS011;46330;50.822;7.126;2023-04-25T05:52:03;12.48;;;4.43;;
9140;SDS011;46330;50.822;7.126;2023-04-25T05:55:01;14.68;;;4.40;;
9140;SDS011;46330;50.822;7.126;2023-04-25T05:57:30;12.93;;;4.10;;
9140;SDS011;46330;50.822;7.126;2023-04-25T06:00:00;17.00;;;7.65;;
9140;SDS011;46330;50.822;7.126;2023-04-25T06:02:41;15.30;;;4.43;;
9140;SDS011;46330;50.822;7.126;2023-04-25T06:05:12;20.45;;;5.15;;
9140;SDS011;46330;50.822;7.126;2023-04-25T06:07:40;12.05;;;4.78;;
9140;SDS011;46330;50.822;7.126;2023-04-25T06:10:08;14.05;;;4.68;;
9140;SDS011;46330;50.822;7.126;2023-04-25T06:12:37;17.05;;;4.63;;
9140;SDS011;46330;50.822;7.126;2023-04-25T06:15:08;13.95;;;4.40;;
9140;SDS011;46330;50.822;7.126;2023-04-25T06:17:53;16.63;;;6.57;;
9140;SDS011;46330;50.822;7.126;2023-04-25T06:20:21;17.20;;;4.85;;
9140;SDS011;46330;50.822;7.126;2023-04-25T06:22:52;19.83;;;4.68;;
9140;SDS011;46330;50.822;7.126;2023-04-25T06:25:29;16.30;;;4.53;;
9140;SDS011;46330;50.822;7.126;2023-04-25T06:27:58;13.77;;;4.70;;
9140;SDS011;46330;50.822;7.126;2023-04-25T06:30:28;13.93;;;4.40;;
9140;SDS011;46330;50.822;7.126;2023-04-25T06:33:01;22.77;;;5.55;;
9140;SDS011;46330;50.822;7.126;2023-04-25T06:35:31;15.95;;;4.30;;
9140;SDS011;46330;50.822;7.126;2023-04-25T06:37:59;12.60;;;4.68;;
9140;SDS011;46330;50.822;7.126;2023-04-25T06:40:29;16.50;;;4.20;;
9140;SDS011;46330;50.822;7.126;2023-04-25T06:42:57;14.45;;;4.43;;
9140;SDS011;46330;50.822;7.126;2023-04-25T06:45:39;14.77;;;4.28;;
9140;SDS011;46330;50.822;7.126;2023-04-25T06:48:09;14.00;;;4.25;;
9140;SDS011;46330;50.822;7.126;2023-04-25T06:50:37;16.08;;;4.40;;
9140;SDS011;46330;50.822;7.126;2023-04-25T06:53:05;15.13;;;4.13;;
9140;SDS011;46330;50.822;7.126;2023-04-25T06:55:35;14.55;;;4.50;;
9140;SDS011;46330;50.822;7.126;2023-04-25T06:58:16;16.20;;;4.15;;
9140;SDS011;46330;50.822;7.126;2023-04-25T07:00:54;15.68;;;5.60;;
9140;SDS011;46330;50.822;7.126;2023-04-25T07:03:25;16.67;;;4.50;;
9140;SDS011;46330;50.822;7.126;2023-04-25T07:05:59;9.75;;;3.75;;
9140;SDS011;46330;50.822;7.126;2023-04-25T07:08:28;12.60;;;3.67;;
9140;SDS011;46330;50.822;7.126;2023-04-25T07:10:57;11.82;;;3.95;;
9140;SDS011;46330;50.822;7.126;2023-04-25T07:13:25;15.80;;;4.15;;
9140;SDS011;46330;50.822;7.126;2023-04-25T07:15:55;12.48;;;4.00;;
9140;SDS011;46330;50.822;7.126;2023-04-25T07:18:24;14.10;;;4.18;;
9140;SDS011;46330;50.822;7.126;2023-04-25T07:20:52;11.73;;;4.13;;
9140;SDS011;46330;50.822;7.126;2023-04-25T07:23:20;10.68;;;3.72;;
9140;SDS011;46330;50.822;7.126;2023-04-25T07:25:48;9.60;;;3.53;;
9140;SDS011;46330;50.822;7.126;2023-04-25T07:28:20;13.48;;;4.07;;
9140;SDS011;46330;50.822;7.126;2023-04-25T07:30:48;11.55;;;3.90;;
9140;SDS011;46330;50.822;7.126;2023-04-25T07:33:17;11.75;;;3.80;;
9140;SDS011;46330;50.822;7.126;2023-04-25T07:35:46;11.50;;;3.38;;
9140;SDS011;46330;50.822;7.126;2023-04-25T07:38:16;11.82;;;4.05;;
9140;SDS011;46330;50.822;7.126;2023-04-25T07:40:44;14.57;;;4.63;;
9140;SDS011;46330;50.822;7.126;2023-04-25T07:43:12;10.88;;;3.78;;
9140;SDS011;46330;50.822;7.126;2023-04-25T07:45:52;13.60;;;3.28;;
9140;SDS011;46330;50.822;7.126;2023-04-25T07:48:22;16.20;;;4.05;;
9140;SDS011;46330;50.822;7.126;2023-04-25T07:50:51;13.90;;;4.07;;
9140;SDS011;46330;50.822;7.126;2023-04-25T07:53:20;10.30;;;3.30;;
9140;SDS011;46330;50.822;7.126;2023-04-25T07:56:00;10.88;;;3.65;;
9140;SDS011;46330;50.822;7.126;2023-04-25T07:58:31;8.73;;;3.20;;
9140;SDS011;46330;50.822;7.126;2023-04-25T08:01:02;11.95;;;3.60;;
9140;SDS011;46330;50.822;7.126;2023-04-25T08:03:35;13.02;;;3.60;;
9140;SDS011;46330;50.822;7.126;2023-04-25T08:06:08;15.52;;;4.57;;
9140;SDS011;46330;50.822;7.126;2023-04-25T08:08:47;15.93;;;4.05;;
9140;SDS011;46330;50.822;7.126;2023-04-25T08:11:18;12.43;;;3.83;;
9140;SDS011;46330;50.822;7.126;2023-04-25T08:13:46;9.25;;;3.55;;
9140;SDS011;46330;50.822;7.126;2023-04-25T08:16:14;11.18;;;4.47;;
9140;SDS011;46330;50.822;7.126;2023-04-25T08:18:43;10.32;;;4.05;;
9140;SDS011;46330;50.822;7.126;2023-04-25T08:21:11;12.27;;;4.20;;
9140;SDS011;46330;50.822;7.126;2023-04-25T08:23:40;13.57;;;4.18;;
9140;SDS011;46330;50.822;7.126;2023-04-25T08:26:12;10.73;;;3.72;;
9140;SDS011;46330;50.822;7.126;2023-04-25T08:28:42;14.63;;;4.15;;
9140;SDS011;46330;50.822;7.126;2023-04-25T08:31:09;9.82;;;3.47;;
9140;SDS011;46330;50.822;7.126;2023-04-25T08:33:48;11.88;;;3.35;;
9140;SDS011;46330;50.822;7.126;2023-04-25T08:36:22;8.73;;;3.10;;
9140;SDS011;46330;50.822;7.126;2023-04-25T08:39:13;8.98;;;3.30;;
9140;SDS011;46330;50.822;7.126;2023-04-25T08:41:56;9.70;;;4.03;;
9140;SDS011;46330;50.822;7.126;2023-04-25T08:44:23;10.85;;;3.00;;
9140;SDS011;46330;50.822;7.126;2023-04-25T08:46:52;8.20;;;2.95;;
9140;SDS011;46330;50.822;7.126;2023-04-25T08:49:29;11.77;;;3.55;;
9140;SDS011;46330;50.822;7.126;2023-04-25T08:51:59;9.15;;;3.20;;
9140;SDS011;46330;50.822;7.126;2023-04-25T08:54:28;10.70;;;3.45;;
9140;SDS011;46330;50.822;7.126;2023-04-25T08:57:02;14.57;;;5.38;;
9140;SDS011;46330;50.822;7.126;2023-04-25T08:59:32;10.55;;;3.15;;
9140;SDS011;46330;50.822;7.126;2023-04-25T09:02:02;17.27;;;3.80;;
9140;SDS011;46330;50.822;7.126;2023-04-25T09:04:32;8.40;;;3.10;;
9140;SDS011;46330;50.822;7.126;2023-04-25T09:07:00;9.40;;;3.20;;
9140;SDS011;46330;50.822;7.126;2023-04-25T09:09:28;15.73;;;4.07;;
9140;SDS011;46330;50.822;7.126;2023-04-25T09:11:56;10.13;;;3.50;;
9140;SDS011;46330;50.822;7.126;2023-04-25T09:14:25;8.55;;;3.20;;
9140;SDS011;46330;50.822;7.126;2023-04-25T09:17:13;9.63;;;3.22;;
9140;SDS011;46330;50.822;7.126;2023-04-25T09:19:44;10.18;;;3.20;;
9140;SDS011;46330;50.822;7.126;2023-04-25T09:22:30;10.55;;;3.30;;
9140;SDS011;46330;50.822;7.126;2023-04-25T09:24:58;10.32;;;4.00;;
9140;SDS011;46330;50.822;7.126;2023-04-25T09:27:30;8.45;;;3.00;;
9140;SDS011;46330;50.822;7.126;2023-04-25T09:30:08;11.18;;;3.25;;
9140;SDS011;46330;50.822;7.126;2023-04-25T09:33:03;12.10;;;2.60;;
9140;SDS011;46330;50.822;7.126;2023-04-25T09:35:37;10.05;;;2.50;;
9140;SDS011;46330;50.822;7.126;2023-04-25T09:38:11;14.23;;;2.97;;
9140;SDS011;46330;50.822;7.126;2023-04-25T09:40:52;12.20;;;2.80;;
9140;SDS011;46330;50.822;7.126;2023-04-25T09:43:50;8.80;;;2.33;;
9140;SDS011;46330;50.822;7.126;2023-04-25T09:46:18;9.32;;;2.50;;
9140;SDS011;46330;50.822;7.126;2023-04-25T09:48:51;7.65;;;2.20;;
9140;SDS011;46330;50.822;7.126;2023-04-25T09:51:48;10.65;;;2.75;;
9140;SDS011;46330;50.822;7.126;2023-04-25T09:54:22;8.88;;;2.30;;
9140;SDS011;46330;50.822;7.126;2023-04-25T09:56:58;9.68;;;2.70;;
9140;SDS011;46330;50.822;7.126;2023-04-25T09:59:38;12.98;;;2.60;;
9140;SDS011;46330;50.822;7.126;2023-04-25T10:02:10;7.57;;;2.15;;
9140;SDS011;46330;50.822;7.126;2023-04-25T10:04:39;11.75;;;3.00;;
9140;SDS011;46330;50.822;7.126;2023-04-25T10:07:29;10.55;;;2.25;;
9140;SDS011;46330;50.822;7.126;2023-04-25T10:10:04;10.70;;;2.53;;
9140;SDS011;46330;50.822;7.126;2023-04-25T10:12:32;7.75;;;2.22;;
9140;SDS011;46330;50.822;7.126;2023-04-25T10:15:00;9.55;;;2.60;;
9140;SDS011;46330;50.822;7.126;2023-04-25T10:17:31;6.88;;;2.17;;
9140;SDS011;46330;50.822;7.126;2023-04-25T10:20:01;12.77;;;2.70;;
9140;SDS011;46330;50.822;7.126;2023-04-25T10:22:32;8.13;;;2.10;;
9140;SDS011;46330;50.822;7.126;2023-04-25T10:25:03;7.07;;;1.73;;
9140;SDS011;46330;50.822;7.126;2023-04-25T10:27:33;7.90;;;1.92;;
9140;SDS011;46330;50.822;7.126;2023-04-25T10:30:02;6.38;;;1.88;;
9140;SDS011;46330;50.822;7.126;2023-04-25T10:32:31;6.97;;;1.92;;
9140;SDS011;46330;50.822;7.126;2023-04-25T10:35:09;9.80;;;2.10;;
9140;SDS011;46330;50.822;7.126;2023-04-25T10:37:40;16.75;;;6.03;;
9140;SDS011;46330;50.822;7.126;2023-04-25T10:40:24;12.88;;;2.67;;
9140;SDS011;46330;50.822;7.126;2023-04-25T10:42:52;8.35;;;2.28;;
9140;SDS011;46330;50.822;7.126;2023-04-25T10:45:20;8.18;;;2.10;;
9140;SDS011;46330;50.822;7.126;2023-04-25T10:47:48;11.68;;;2.30;;
9140;SDS011;46330;50.822;7.126;2023-04-25T10:50:17;8.55;;;2.22;;
9140;SDS011;46330;50.822;7.126;2023-04-25T10:52:46;5.70;;;2.17;;
9140;SDS011;46330;50.822;7.126;2023-04-25T10:55:14;10.30;;;2.60;;
9140;SDS011;46330;50.822;7.126;2023-04-25T10:57:43;8.88;;;2.47;;
9140;SDS011;46330;50.822;7.126;2023-04-25T11:00:15;7.32;;;2.47;;
9140;SDS011;46330;50.822;7.126;2023-04-25T11:02:45;9.40;;;2.20;;
9140;SDS011;46330;50.822;7.126;2023-04-25T11:05:19;12.15;;;2.58;;
9140;SDS011;46330;50.822;7.126;2023-04-25T11:10:33;9.27;;;2.25;;
9140;SDS011;46330;50.822;7.126;2023-04-25T11:13:02;6.82;;;2.17;;
9140;SDS011;46330;50.822;7.126;2023-04-25T11:15:30;9.35;;;2.30;;
9140;SDS011;46330;50.822;7.126;2023-04-25T11:17:57;7.60;;;2.30;;
9140;SDS011;46330;50.822;7.126;2023-04-25T11:20:26;7.43;;;1.70;;
9140;SDS011;46330;50.822;7.126;2023-04-25T11:22:58;6.75;;;1.90;;
9140;SDS011;46330;50.822;7.126;2023-04-25T11:25:27;10.13;;;2.05;;
9140;SDS011;46330;50.822;7.126;2023-04-25T11:27:57;8.13;;;1.92;;
9140;SDS011;46330;50.822;7.126;2023-04-25T11:30:27;10.13;;;4.25;;
9140;SDS011;46330;50.822;7.126;2023-04-25T11:32:56;6.47;;;2.10;;
9140;SDS011;46330;50.822;7.126;2023-04-25T11:35:25;6.82;;;1.70;;
9140;SDS011;46330;50.822;7.126;2023-04-25T11:37:54;5.90;;;1.92;;
9140;SDS011;46330;50.822;7.126;2023-04-25T11:40:23;7.07;;;1.88;;
9140;SDS011;46330;50.822;7.126;2023-04-25T11:42:51;4.07;;;1.80;;
9140;SDS011;46330;50.822;7.126;2023-04-25T11:45:20;7.65;;;2.05;;
9140;SDS011;46330;50.822;7.126;2023-04-25T11:47:50;9.38;;;2.17;;
9140;SDS011;46330;50.822;7.126;2023-04-25T11:50:19;10.00;;;2.45;;
9140;SDS011;46330;50.822;7.126;2023-04-25T11:52:47;8.25;;;2.38;;
9140;SDS011;46330;50.822;7.126;2023-04-25T11:55:17;6.45;;;2.38;;
9140;SDS011;46330;50.822;7.126;2023-04-25T11:57:48;5.47;;;2.00;;
9140;SDS011;46330;50.822;7.126;2023-04-25T12:00:22;10.52;;;2.10;;
9140;SDS011;46330;50.822;7.126;2023-04-25T12:02:52;4.68;;;1.50;;
9140;SDS011;46330;50.822;7.126;2023-04-25T12:05:23;7.55;;;1.95;;
9140;SDS011;46330;50.822;7.126;2023-04-25T12:08:09;5.50;;;2.03;;
9140;SDS011;46330;50.822;7.126;2023-04-25T12:10:38;6.35;;;1.60;;
9140;SDS011;46330;50.822;7.126;2023-04-25T12:13:22;7.43;;;2.08;;
9140;SDS011;46330;50.822;7.126;2023-04-25T12:15:51;11.90;;;1.85;;
9140;SDS011;46330;50.822;7.126;2023-04-25T12:18:22;5.63;;;1.95;;
9140;SDS011;46330;50.822;7.126;2023-04-25T12:20:53;6.72;;;1.90;;
9140;SDS011;46330;50.822;7.126;2023-04-25T12:23:25;6.22;;;1.90;;
9140;SDS011;46330;50.822;7.126;2023-04-25T12:25:55;4.55;;;1.50;;
9140;SDS011;46330;50.822;7.126;2023-04-25T12:28:25;5.82;;;1.77;;
9140;SDS011;46330;50.822;7.126;2023-04-25T12:30:57;7.00;;;1.90;;
9140;SDS011;46330;50.822;7.126;2023-04-25T12:33:28;8.38;;;1.65;;
9140;SDS011;46330;50.822;7.126;2023-04-25T12:35:57;5.22;;;1.77;;
9140;SDS011;46330;50.822;7.126;2023-04-25T12:38:26;8.60;;;2.13;;
9140;SDS011;46330;50.822;7.126;2023-04-25T12:40:57;5.63;;;1.83;;
9140;SDS011;46330;50.822;7.126;2023-04-25T12:43:27;6.25;;;1.70;;
9140;SDS011;46330;50.822;7.126;2023-04-25T12:45:55;5.93;;;1.73;;
9140;SDS011;46330;50.822;7.126;2023-04-25T12:48:23;4.57;;;1.60;;
9140;SDS011;46330;50.822;7.126;2023-04-25T12:50:51;6.10;;;1.88;;
9140;SDS011;46330;50.822;7.126;2023-04-25T12:53:20;4.30;;;1.60;;
9140;SDS011;46330;50.822;7.126;2023-04-25T12:55:49;3.10;;;1.60;;
9140;SDS011;46330;50.822;7.126;2023-04-25T12:58:18;3.25;;;1.42;;
9140;SDS011;46330;50.822;7.126;2023-04-25T13:00:48;6.97;;;1.40;;
9140;SDS011;46330;50.822;7.126;2023-04-25T13:03:16;4.57;;;1.33;;
9140;SDS011;46330;50.822;7.126;2023-04-25T13:05:44;5.75;;;1.42;;
9140;SDS011;46330;50.822;7.126;2023-04-25T13:08:12;5.18;;;1.42;;
9140;SDS011;46330;50.822;7.126;2023-04-25T13:10:40;5.10;;;1.52;;
9140;SDS011;46330;50.822;7.126;2023-04-25T13:13:08;7.93;;;1.77;;
9140;SDS011;46330;50.822;7.126;2023-04-25T13:15:36;4.38;;;1.70;;
9140;SDS011;46330;50.822;7.126;2023-04-25T13:18:05;5.13;;;1.60;;
9140;SDS011;46330;50.822;7.126;2023-04-25T13:20:33;5.18;;;1.33;;
9140;SDS011;46330;50.822;7.126;2023-04-25T13:23:01;4.72;;;1.70;;
9140;SDS011;46330;50.822;7.126;2023-04-25T13:25:29;4.88;;;1.70;;
9140;SDS011;46330;50.822;7.126;2023-04-25T13:27:57;2.75;;;1.33;;
9140;SDS011;46330;50.822;7.126;2023-04-25T13:30:25;4.72;;;1.75;;
9140;SDS011;46330;50.822;7.126;2023-04-25T13:32:53;2.45;;;1.15;;
9140;SDS011;46330;50.822;7.126;2023-04-25T13:35:24;3.85;;;1.80;;
9140;SDS011;46330;50.822;7.126;2023-04-25T13:37:52;5.20;;;1.80;;
9140;SDS011;46330;50.822;7.126;2023-04-25T13:40:20;4.05;;;1.50;;
9140;SDS011;46330;50.822;7.126;2023-04-25T13:42:51;9.18;;;2.85;;
9140;SDS011;46330;50.822;7.126;2023-04-25T13:45:18;7.28;;;2.17;;
9140;SDS011;46330;50.822;7.126;2023-04-25T13:47:47;5.10;;;1.77;;
9140;SDS011;46330;50.822;7.126;2023-04-25T13:50:15;5.93;;;1.80;;
9140;SDS011;46330;50.822;7.126;2023-04-25T13:52:44;5.40;;;1.40;;
9140;SDS011;46330;50.822;7.126;2023-04-25T13:55:13;6.60;;;1.63;;
9140;SDS011;46330;50.822;7.126;2023-04-25T13:57:40;3.25;;;1.60;;
9140;SDS011;46330;50.822;7.126;2023-04-25T14:00:09;5.40;;;1.48;;
9140;SDS011;46330;50.822;7.126;2023-04-25T14:02:38;8.63;;;1.85;;
9140;SDS011;46330;50.822;7.126;2023-04-25T14:05:06;6.07;;;1.80;;
9140;SDS011;46330;50.822;7.126;2023-04-25T14:07:36;5.82;;;1.80;;
9140;SDS011;46330;50.822;7.126;2023-04-25T14:10:05;4.72;;;1.73;;
9140;SDS011;46330;50.822;7.126;2023-04-25T14:12:34;3.33;;;1.30;;
9140;SDS011;46330;50.822;7.126;2023-04-25T14:15:02;2.58;;;1.40;;
9140;SDS011;46330;50.822;7.126;2023-04-25T14:17:31;3.65;;;1.23;;
9140;SDS011;46330;50.822;7.126;2023-04-25T14:19:59;2.78;;;1.48;;
9140;SDS011;46330;50.822;7.126;2023-04-25T14:22:28;6.90;;;1.65;;
9140;SDS011;46330;50.822;7.126;2023-04-25T14:24:56;4.05;;;1.77;;
9140;SDS011;46330;50.822;7.126;2023-04-25T14:27:25;3.67;;;1.50;;
9140;SDS011;46330;50.822;7.126;2023-04-25T14:29:54;3.95;;;1.52;;
9140;SDS011;46330;50.822;7.126;2023-04-25T14:32:22;5.63;;;1.50;;
9140;SDS011;46330;50.822;7.126;2023-04-25T14:34:50;5.25;;;1.45;;
9140;SDS011;46330;50.822;7.126;2023-04-25T14:37:18;3.92;;;1.38;;
9140;SDS011;46330;50.822;7.126;2023-04-25T14:39:46;4.38;;;1.40;;
9140;SDS011;46330;50.822;7.126;2023-04-25T14:42:14;4.55;;;1.48;;
9140;SDS011;46330;50.822;7.126;2023-04-25T14:44:43;3.35;;;1.58;;
9140;SDS011;46330;50.822;7.126;2023-04-25T14:47:12;3.15;;;1.73;;
9140;SDS011;46330;50.822;7.126;2023-04-25T14:49:40;2.90;;;1.10;;
9140;SDS011;46330;50.822;7.126;2023-04-25T14:52:08;2.67;;;1.40;;
9140;SDS011;46330;50.822;7.126;2023-04-25T14:54:36;4.60;;;1.58;;
9140;SDS011;46330;50.822;7.126;2023-04-25T14:57:04;3.17;;;1.60;;
9140;SDS011;46330;50.822;7.126;2023-04-25T14:59:32;4.32;;;1.40;;
9140;SDS011;46330;50.822;7.126;2023-04-25T15:02:01;3.50;;;1.33;;
9140;SDS011;46330;50.822;7.126;2023-04-25T15:04:29;3.40;;;1.30;;
9140;SDS011;46330;50.822;7.126;2023-04-25T15:06:57;3.65;;;1.38;;
9140;SDS011;46330;50.822;7.126;2023-04-25T15:09:25;4.40;;;1.20;;
9140;SDS011;46330;50.822;7.126;2023-04-25T15:11:55;3.85;;;1.30;;
9140;SDS011;46330;50.822;7.126;2023-04-25T15:14:23;5.03;;;1.55;;
9140;SDS011;46330;50.822;7.126;2023-04-25T15:16:51;5.63;;;2.05;;
9140;SDS011;46330;50.822;7.126;2023-04-25T15:19:20;4.82;;;1.48;;
9140;SDS011;46330;50.822;7.126;2023-04-25T15:21:48;3.22;;;1.33;;